Time;durP1;ratioP1;P1;durP2;ratioP2;P2;SDS_P1;SDS_P2;PMS_P1;PMS_P2;Temp;Humidity;BMP_temperature;BMP_pressure;BME280_temperature;BME280_humidity;BME280_pressure;Samples;Min_cycle;Max_cycle;Signal;HPM_P1;HPM_P2
2022/07/31 00:01:32;;;;;;;7.78;5.47;;;;;;;15.32;100.00;99946.97;5037036;28;20035;-71
2022/07/31 00:03:58;;;;;;;9.90;5.07;;;;;;;15.28;100.00;99946.47;5037156;28;20108;-71
2022/07/31 00:06:23;;;;;;;6.47;5.25;;;;;;;15.27;100.00;99950.66;5037583;28;20025;-72
2022/07/31 00:08:49;;;;;;;12.95;6.18;;;;;;;15.23;100.00;99950.97;5037133;28;20033;-71
2022/07/31 00:11:15;;;;;;;7.03;4.78;;;;;;;15.21;100.00;99955.69;5036811;28;20032;-71
2022/07/31 00:13:40;;;;;;;8.27;4.93;;;;;;;15.15;100.00;99961.50;5035917;28;20121;-71
2022/07/31 00:16:05;;;;;;;7.18;5.07;;;;;;;15.15;100.00;99955.75;5036847;28;20028;-72
2022/07/31 00:18:32;;;;;;;6.95;5.40;;;;;;;15.14;100.00;99957.03;5035931;28;20021;-72
2022/07/31 00:20:58;;;;;;;7.05;4.75;;;;;;;15.15;100.00;99952.06;5035809;28;20025;-71
2022/07/31 00:23:23;;;;;;;7.78;4.80;;;;;;;15.08;100.00;99953.41;5036828;28;20066;-72
2022/07/31 00:25:49;;;;;;;7.00;4.95;;;;;;;15.08;100.00;99959.19;5035553;28;20096;-72
2022/07/31 00:28:14;;;;;;;9.40;4.90;;;;;;;15.07;100.00;99960.47;5035564;28;20056;-73
2022/07/31 00:30:39;;;;;;;7.18;4.97;;;;;;;15.06;100.00;99956.06;5036477;28;20378;-71
2022/07/31 00:33:05;;;;;;;5.88;4.82;;;;;;;15.06;100.00;99963.91;5036576;28;20100;-72
2022/07/31 00:35:31;;;;;;;5.25;4.75;;;;;;;15.06;100.00;99950.31;5036947;28;20086;-71
2022/07/31 00:37:56;;;;;;;5.22;4.70;;;;;;;15.10;100.00;99955.78;5036464;28;20398;-72
2022/07/31 00:40:22;;;;;;;5.82;5.00;;;;;;;15.12;100.00;99947.41;5035539;28;20040;-71
2022/07/31 00:42:47;;;;;;;8.43;4.97;;;;;;;15.16;100.00;99959.41;5036664;28;20029;-72
2022/07/31 00:45:13;;;;;;;6.50;4.47;;;;;;;15.16;100.00;99951.56;5036311;28;20037;-71
2022/07/31 00:47:38;;;;;;;8.52;5.20;;;;;;;15.13;100.00;99957.56;5035120;28;20027;-72
2022/07/31 00:50:04;;;;;;;7.75;5.07;;;;;;;15.14;100.00;99968.56;5036421;28;20021;-72
2022/07/31 00:52:29;;;;;;;5.32;4.30;;;;;;;15.16;100.00;99960.19;5035130;28;20037;-72
2022/07/31 00:54:55;;;;;;;7.70;5.22;;;;;;;15.12;100.00;99967.53;5018519;28;20025;-72
2022/07/31 00:57:20;;;;;;;6.57;4.65;;;;;;;15.11;100.00;99969.63;5036413;28;20029;-72
2022/07/31 00:59:48;;;;;;;8.52;4.90;;;;;;;15.14;100.00;99976.41;5035541;28;20017;-71
2022/07/31 01:02:16;;;;;;;7.50;4.85;;;;;;;15.16;100.00;99976.66;5036360;28;20107;-71
2022/07/31 01:04:41;;;;;;;6.53;4.78;;;;;;;15.15;100.00;99967.25;5035088;28;20057;-72
2022/07/31 01:07:08;;;;;;;7.20;5.32;;;;;;;15.15;100.00;99969.34;5034165;28;20497;-73
2022/07/31 01:09:35;;;;;;;5.97;4.70;;;;;;;15.14;100.00;99976.41;5036058;28;20104;-72
2022/07/31 01:12:13;;;;;;;5.22;4.65;;;;;;;15.13;100.00;99969.09;5036116;28;20075;-73
2022/07/31 01:15:01;;;;;;;7.57;4.45;;;;;;;15.13;100.00;99974.84;5018109;28;20021;-72
2022/07/31 01:17:28;;;;;;;8.05;4.75;;;;;;;15.11;100.00;99978.28;5035613;28;20064;-72
2022/07/31 01:19:53;;;;;;;6.07;4.25;;;;;;;15.13;100.00;99980.59;5018194;28;20033;-72
2022/07/31 01:22:42;;;;;;;7.57;4.43;;;;;;;15.13;100.00;99972.75;5018237;28;20471;-71
2022/07/31 01:25:16;;;;;;;7.15;4.20;;;;;;;15.12;100.00;99964.66;5035683;28;20021;-72
2022/07/31 01:27:43;;;;;;;7.15;4.30;;;;;;;15.13;100.00;99961.22;5034471;28;20462;-72
2022/07/31 01:30:09;;;;;;;5.35;4.32;;;;;;;15.13;100.00;99964.13;5035677;28;20096;-71
2022/07/31 01:32:39;;;;;;;4.72;3.72;;;;;;;15.12;100.00;99964.66;5017834;28;20063;-71
2022/07/31 01:35:22;;;;;;;6.68;4.82;;;;;;;15.11;100.00;99971.72;5034276;28;20033;-71
2022/07/31 01:38:14;;;;;;;4.40;3.88;;;;;;;15.12;100.00;99968.31;5034231;28;20509;-72
2022/07/31 01:40:45;;;;;;;7.03;4.40;;;;;;;15.12;100.00;99965.41;5028966;28;20545;-72
2022/07/31 01:43:18;;;;;;;6.88;4.80;;;;;;;15.12;100.00;99962.53;5016275;28;20079;-72
2022/07/31 01:45:46;;;;;;;5.38;4.03;;;;;;;15.10;100.00;99962.31;5031738;28;20040;-72
2022/07/31 01:48:14;;;;;;;4.95;4.13;;;;;;;15.11;100.00;99972.50;5015719;28;20025;-71
2022/07/31 01:50:42;;;;;;;5.15;4.07;;;;;;;15.11;100.00;99978.28;5015976;28;20042;-72
2022/07/31 01:53:09;;;;;;;6.95;4.15;;;;;;;15.10;100.00;99987.44;5031778;28;20025;-72
2022/07/31 01:55:37;;;;;;;4.43;3.67;;;;;;;15.10;100.00;99975.91;5031773;28;20390;-71
2022/07/31 01:58:03;;;;;;;5.97;4.10;;;;;;;15.11;100.00;99983.25;5015543;28;20055;-72
2022/07/31 02:00:29;;;;;;;6.35;4.15;;;;;;;15.11;100.00;99975.41;5031947;28;20025;-71
2022/07/31 02:02:57;;;;;;;5.93;4.13;;;;;;;15.13;100.00;99987.13;5031882;28;20034;-71
2022/07/31 02:05:23;;;;;;;5.40;4.20;;;;;;;15.13;100.00;99981.38;5001293;28;20067;-71
2022/07/31 02:07:49;;;;;;;4.93;4.22;;;;;;;15.18;100.00;99988.41;5031863;28;20036;-72
2022/07/31 02:10:16;;;;;;;4.85;3.85;;;;;;;15.15;100.00;99986.63;5031337;28;20026;-72
2022/07/31 02:12:42;;;;;;;5.95;4.20;;;;;;;15.17;100.00;99989.72;5031429;28;20136;-72
2022/07/31 02:15:11;;;;;;;6.32;4.50;;;;;;;15.19;100.00;99987.09;5031775;28;20032;-72
2022/07/31 02:17:37;;;;;;;4.93;3.97;;;;;;;15.22;100.00;99991.78;5032576;28;20076;-71
2022/07/31 02:20:05;;;;;;;5.60;4.40;;;;;;;15.22;100.00;99989.69;5031174;28;20497;-71
2022/07/31 02:22:31;;;;;;;5.10;4.05;;;;;;;15.23;100.00;99984.72;5030909;28;20112;-71
2022/07/31 02:24:56;;;;;;;5.22;3.92;;;;;;;15.18;100.00;99989.19;5014781;28;20419;-71
2022/07/31 02:27:23;;;;;;;7.35;4.07;;;;;;;15.18;100.00;100000.72;5031021;28;20534;-71
2022/07/31 02:29:49;;;;;;;5.97;4.15;;;;;;;15.16;100.00;100000.47;5031142;28;20080;-72
2022/07/31 02:32:16;;;;;;;5.85;4.75;;;;;;;15.18;100.00;99994.19;5031074;28;20025;-72
2022/07/31 02:34:43;;;;;;;5.20;4.53;;;;;;;15.18;100.00;100003.59;5031063;28;20026;-72
2022/07/31 02:37:09;;;;;;;9.10;5.05;;;;;;;15.20;100.00;100005.94;5031074;28;20128;-72
2022/07/31 02:39:35;;;;;;;8.45;4.43;;;;;;;15.17;100.00;100004.13;5032020;28;20104;-72
2022/07/31 02:42:01;;;;;;;4.43;4.00;;;;;;;15.16;100.00;100005.47;5032859;28;20026;-71
2022/07/31 02:44:27;;;;;;;7.35;4.15;;;;;;;15.14;100.00;100010.94;5034434;28;20061;-71
2022/07/31 02:46:53;;;;;;;4.60;4.15;;;;;;;15.17;100.00;100009.88;5033176;28;20123;-71
2022/07/31 02:49:19;;;;;;;7.00;4.50;;;;;;;15.16;100.00;100006.25;5032998;28;20025;-71
2022/07/31 02:51:44;;;;;;;5.40;4.10;;;;;;;15.16;100.00;100000.47;5016352;28;20025;-70
2022/07/31 02:54:16;;;;;;;7.55;3.80;;;;;;;15.20;100.00;100012.50;5033841;28;20497;-71
2022/07/31 02:56:41;;;;;;;4.40;3.97;;;;;;;15.17;100.00;100022.16;5032535;28;20035;-72
2022/07/31 02:59:07;;;;;;;6.47;4.82;;;;;;;15.21;100.00;100013.28;5030437;28;20101;-71
2022/07/31 03:01:33;;;;;;;4.80;4.28;;;;;;;15.18;100.00;100005.69;5030533;28;20048;-72
2022/07/31 03:03:59;;;;;;;6.53;4.53;;;;;;;15.21;100.00;100004.63;5030650;28;20029;-72
2022/07/31 03:06:24;;;;;;;5.38;4.57;;;;;;;15.26;100.00;100009.59;5031783;28;20037;-72
2022/07/31 03:08:50;;;;;;;5.90;4.38;;;;;;;15.28;100.00;100006.94;5031647;28;20099;-73
2022/07/31 03:11:15;;;;;;;6.53;4.50;;;;;;;15.27;100.00;100009.03;5030451;28;20060;-73
2022/07/31 03:13:42;;;;;;;5.40;4.63;;;;;;;15.25;100.00;100011.69;5015801;28;20055;-72
2022/07/31 03:16:10;;;;;;;11.43;5.70;;;;;;;15.21;100.00;100011.19;5016127;28;20024;-71
2022/07/31 03:18:39;;;;;;;6.07;5.20;;;;;;;15.27;100.00;100020.53;5030543;28;20076;-70
2022/07/31 03:21:08;;;;;;;5.90;5.28;;;;;;;15.26;100.00;100021.88;4999911;28;20032;-71
2022/07/31 03:23:37;;;;;;;8.45;5.15;;;;;;;15.30;100.00;100018.72;5016222;28;20390;-71
2022/07/31 03:26:06;;;;;;;11.85;5.63;;;;;;;15.26;100.00;100012.47;5032521;28;20474;-71
2022/07/31 03:28:34;;;;;;;8.57;5.20;;;;;;;15.25;100.00;100020.31;4999138;28;20120;-72
2022/07/31 03:31:01;;;;;;;6.70;5.28;;;;;;;15.24;100.00;100027.38;5032750;28;20044;-72
2022/07/31 03:33:35;;;;;;;6.60;5.50;;;;;;;15.27;100.00;100028.41;5032329;28;20094;-72
2022/07/31 03:36:11;;;;;;;8.82;5.30;;;;;;;15.26;100.00;100033.41;5033528;28;20121;-72
2022/07/31 03:38:38;;;;;;;7.57;5.32;;;;;;;15.26;100.00;100023.97;5032142;28;20083;-71
2022/07/31 03:41:05;;;;;;;6.47;5.45;;;;;;;15.27;100.00;100028.41;5015957;28;20048;-72
2022/07/31 03:43:32;;;;;;;6.63;5.47;;;;;;;15.31;100.00;100026.03;5032178;28;20037;-72
2022/07/31 03:46:00;;;;;;;6.65;5.35;;;;;;;15.32;100.00;100027.56;5015823;28;20069;-72
2022/07/31 03:48:26;;;;;;;6.80;5.65;;;;;;;15.32;100.00;100032.59;5032298;28;20045;-72
2022/07/31 03:50:52;;;;;;;7.38;6.28;;;;;;;15.35;100.00;100043.81;5016176;28;20042;-72
2022/07/31 03:53:17;;;;;;;8.55;5.47;;;;;;;15.37;100.00;100029.66;5032515;28;20040;-72
2022/07/31 03:55:44;;;;;;;9.15;6.00;;;;;;;15.41;100.00;100033.03;5032027;28;20022;-72
2022/07/31 03:58:19;;;;;;;9.18;6.13;;;;;;;15.45;100.00;100029.88;5015899;28;20112;-72
2022/07/31 04:00:45;;;;;;;7.07;5.45;;;;;;;15.46;100.00;100037.19;5015896;28;20033;-72
2022/07/31 04:03:12;;;;;;;8.45;6.22;;;;;;;15.47;100.00;100018.59;5033180;28;20100;-72
2022/07/31 04:05:39;;;;;;;10.30;6.78;;;;;;;15.47;100.00;100025.13;5032906;28;20083;-71
2022/07/31 04:08:09;;;;;;;7.80;5.80;;;;;;;15.52;100.00;100024.31;5015829;28;20371;-71
2022/07/31 04:10:35;;;;;;;7.82;5.93;;;;;;;15.55;100.00;100019.59;5032236;28;20079;-72
2022/07/31 04:13:03;;;;;;;9.55;6.40;;;;;;;15.55;100.00;100023.25;5032094;28;20025;-72
2022/07/31 04:15:32;;;;;;;10.48;6.30;;;;;;;15.54;100.00;100024.56;5031884;28;20048;-71
2022/07/31 04:17:59;;;;;;;9.25;7.03;;;;;;;15.58;100.00;100032.91;5033755;28;20025;-71
2022/07/31 04:20:24;;;;;;;11.50;7.43;;;;;;;15.56;100.00;100035.56;5032748;28;20151;-70
2022/07/31 04:22:51;;;;;;;11.60;9.55;;;;;;;15.54;100.00;100038.97;5032143;28;20482;-70
2022/07/31 04:25:17;;;;;;;8.40;7.13;;;;;;;15.55;100.00;100040.53;5015971;28;20025;-71
2022/07/31 04:27:43;;;;;;;11.13;7.70;;;;;;;15.58;100.00;100048.09;5031744;28;20028;-71
2022/07/31 04:30:10;;;;;;;8.82;7.15;;;;;;;15.60;100.00;100047.59;5033057;28;20017;-71
2022/07/31 04:32:36;;;;;;;12.02;7.72;;;;;;;15.59;100.00;100051.78;5032990;28;20402;-71
2022/07/31 04:35:03;;;;;;;8.43;6.80;;;;;;;15.56;100.00;100052.84;5032707;28;20065;-71
2022/07/31 04:37:29;;;;;;;10.60;7.38;;;;;;;15.50;100.00;100038.47;5015026;28;20045;-72
2022/07/31 04:39:56;;;;;;;9.05;7.00;;;;;;;15.61;100.00;100058.56;5031852;28;20107;-71
2022/07/31 04:42:28;;;;;;;9.77;6.85;;;;;;;15.61;100.00;100052.06;5035934;28;20025;-72
2022/07/31 04:44:56;;;;;;;9.82;6.97;;;;;;;15.64;100.00;100059.63;5036537;28;20023;-71
2022/07/31 04:47:21;;;;;;;9.45;7.38;;;;;;;15.66;100.00;100057.75;5036439;28;20112;-72
2022/07/31 04:49:48;;;;;;;10.20;6.68;;;;;;;15.75;100.00;100055.88;5036425;28;20525;-72
2022/07/31 04:52:16;;;;;;;9.55;5.97;;;;;;;15.78;100.00;100057.69;5036517;28;20056;-71
2022/07/31 04:54:41;;;;;;;8.75;7.28;;;;;;;15.82;100.00;100052.41;5036584;28;20111;-71
2022/07/31 04:57:08;;;;;;;8.60;6.53;;;;;;;15.87;100.00;100049.47;5036196;28;20023;-71
2022/07/31 04:59:42;;;;;;;11.88;6.80;;;;;;;15.93;100.00;100058.88;5036358;28;20068;-71
2022/07/31 05:02:07;;;;;;;9.57;6.03;;;;;;;15.93;100.00;100055.19;5036133;28;20057;-71
2022/07/31 05:04:32;;;;;;;8.38;6.13;;;;;;;15.98;100.00;100063.00;5036179;28;20423;-70
2022/07/31 05:06:58;;;;;;;8.15;6.15;;;;;;;15.97;100.00;100067.22;5034512;28;20048;-71
2022/07/31 05:09:27;;;;;;;8.38;6.07;;;;;;;15.99;100.00;100068.25;5035958;28;20045;-72
2022/07/31 05:11:52;;;;;;;7.22;5.47;;;;;;;16.03;100.00;100071.63;5034675;28;20017;-71
2022/07/31 05:14:20;;;;;;;6.97;5.63;;;;;;;16.05;100.00;100077.66;5034439;28;20043;-72
2022/07/31 05:16:47;;;;;;;5.97;5.20;;;;;;;16.08;100.00;100073.69;5034794;28;20056;-71
2022/07/31 05:19:14;;;;;;;7.85;5.60;;;;;;;16.06;100.00;100082.06;5018277;28;20120;-71
2022/07/31 05:21:43;;;;;;;6.88;5.60;;;;;;;16.05;100.00;100083.41;5034743;28;20459;-72
2022/07/31 05:24:08;;;;;;;8.45;5.55;;;;;;;16.07;100.00;100082.84;5034577;28;20080;-72
2022/07/31 05:26:34;;;;;;;7.05;5.45;;;;;;;16.13;100.00;100095.13;5034578;28;20533;-72
2022/07/31 05:29:01;;;;;;;8.73;5.22;;;;;;;16.14;100.00;100105.34;5035755;28;20527;-71
2022/07/31 05:31:27;;;;;;;9.02;5.75;;;;;;;16.16;100.00;100102.69;5035649;28;20040;-72
2022/07/31 05:33:54;;;;;;;8.55;5.53;;;;;;;16.18;100.00;100108.72;5035540;28;20355;-71
2022/07/31 05:36:21;;;;;;;8.82;5.65;;;;;;;16.29;100.00;100099.97;5035824;28;20017;-71
2022/07/31 05:38:48;;;;;;;7.90;6.00;;;;;;;16.34;100.00;100112.78;5034324;28;20125;-72
2022/07/31 05:41:15;;;;;;;8.40;6.95;;;;;;;16.43;100.00;100112.41;5017618;28;20597;-71
2022/07/31 05:43:42;;;;;;;8.00;5.50;;;;;;;16.54;100.00;100106.59;5036273;28;20053;-70
2022/07/31 05:46:08;;;;;;;8.80;7.00;;;;;;;16.62;99.71;100113.31;5043461;28;20488;-72
2022/07/31 05:48:33;;;;;;;7.65;5.45;;;;;;;16.67;98.46;100123.22;5050329;28;20060;-72
2022/07/31 05:51:07;;;;;;;8.70;6.07;;;;;;;16.72;97.74;100128.94;5039632;28;20549;-69
2022/07/31 05:53:32;;;;;;;6.80;5.82;;;;;;;16.71;96.95;100141.81;5034796;28;20096;-69
2022/07/31 05:55:58;;;;;;;10.48;6.55;;;;;;;16.67;96.35;100141.31;5017334;28;20124;-69
2022/07/31 05:58:25;;;;;;;6.38;5.57;;;;;;;16.75;95.91;100147.28;5037291;28;20530;-69
2022/07/31 06:00:51;;;;;;;9.45;6.00;;;;;;;16.80;95.77;100143.53;5037987;28;20029;-70
2022/07/31 06:03:22;;;;;;;6.70;5.38;;;;;;;16.85;94.53;100152.16;5032211;28;20037;-68
2022/07/31 06:05:55;;;;;;;6.80;6.10;;;;;;;16.95;94.00;100153.34;5017454;28;20466;-68
2022/07/31 06:08:22;;;;;;;6.22;5.30;;;;;;;17.10;94.41;100158.69;5033628;28;20029;-69
2022/07/31 06:10:47;;;;;;;8.68;5.10;;;;;;;17.22;93.60;100154.38;5035106;28;20029;-69
2022/07/31 06:13:15;;;;;;;6.50;5.05;;;;;;;17.31;93.38;100164.75;5034870;28;20505;-68
2022/07/31 06:15:41;;;;;;;9.75;5.72;;;;;;;17.32;92.39;100163.44;5034845;28;20033;-69
2022/07/31 06:18:08;;;;;;;7.68;5.68;;;;;;;17.35;92.24;100168.13;5034928;28;20029;-69
2022/07/31 06:20:33;;;;;;;6.75;5.60;;;;;;;17.39;91.62;100171.47;5034601;28;20412;-69
2022/07/31 06:22:59;;;;;;;6.10;5.32;;;;;;;17.38;91.38;100169.94;5034745;28;20140;-69
2022/07/31 06:25:25;;;;;;;6.50;5.15;;;;;;;17.41;90.25;100180.41;5033522;28;20382;-69
2022/07/31 06:27:51;;;;;;;7.60;5.80;;;;;;;17.44;89.35;100182.22;5034508;28;20418;-69
2022/07/31 06:30:16;;;;;;;8.32;6.25;;;;;;;17.43;89.38;100174.88;5034309;28;20083;-68
2022/07/31 06:32:42;;;;;;;6.28;5.55;;;;;;;17.51;89.52;100183.72;5033921;28;20068;-68
2022/07/31 06:35:09;;;;;;;7.38;5.78;;;;;;;17.63;89.08;100182.25;5033328;28;20120;-69
2022/07/31 06:37:37;;;;;;;7.50;5.47;;;;;;;17.71;89.22;100188.97;5034415;28;20084;-68
2022/07/31 06:40:05;;;;;;;5.93;5.40;;;;;;;17.80;88.21;100195.16;5034608;28;20029;-70
2022/07/31 06:42:32;;;;;;;8.13;5.10;;;;;;;17.82;87.61;100201.19;5040398;28;20026;-69
2022/07/31 06:44:59;;;;;;;6.97;5.88;;;;;;;17.92;88.05;100204.47;5043644;28;20021;-69
2022/07/31 06:47:27;;;;;;;6.95;5.57;;;;;;;18.02;87.91;100196.19;5047068;28;20020;-70
2022/07/31 06:49:54;;;;;;;6.90;5.13;;;;;;;18.08;87.01;100196.88;5052652;28;20029;-68
2022/07/31 06:52:21;;;;;;;6.57;5.22;;;;;;;18.07;87.04;100199.00;5053595;28;20032;-69
2022/07/31 06:54:47;;;;;;;4.78;4.18;;;;;;;18.08;86.96;100197.63;5028236;28;20119;-70
2022/07/31 06:57:14;;;;;;;5.70;4.70;;;;;;;18.22;86.88;100195.59;5043393;28;20398;-70
2022/07/31 06:59:40;;;;;;;5.35;4.75;;;;;;;18.37;86.69;100193.03;5047585;28;20021;-68
2022/07/31 07:02:06;;;;;;;7.50;4.90;;;;;;;18.52;85.70;100199.06;5036089;28;20041;-68
2022/07/31 07:04:33;;;;;;;6.25;4.55;;;;;;;18.61;85.17;100200.78;5046047;28;20398;-70
2022/07/31 07:06:59;;;;;;;10.38;4.65;;;;;;;18.74;84.80;100197.94;5025623;28;20025;-69
2022/07/31 07:09:26;;;;;;;5.22;4.72;;;;;;;18.89;83.49;100208.97;5053692;28;20119;-68
2022/07/31 07:11:53;;;;;;;6.57;4.32;;;;;;;18.92;82.61;100213.69;5053632;28;20078;-68
2022/07/31 07:14:19;;;;;;;6.32;4.45;;;;;;;18.97;82.12;100209.88;5048335;28;20032;-68
2022/07/31 07:16:44;;;;;;;6.22;3.95;;;;;;;19.05;82.42;100208.69;5041055;28;20058;-68
2022/07/31 07:19:11;;;;;;;4.68;4.18;;;;;;;19.20;82.11;100210.28;5053214;28;20048;-69
2022/07/31 07:21:36;;;;;;;7.35;4.63;;;;;;;19.35;81.99;100214.19;5053487;28;20029;-67
2022/07/31 07:24:04;;;;;;;6.63;4.18;;;;;;;19.43;80.68;100223.00;5035441;28;20056;-72
2022/07/31 07:26:30;;;;;;;6.07;3.70;;;;;;;19.50;80.12;100223.13;5044498;28;20039;-69
2022/07/31 07:28:58;;;;;;;4.53;3.95;;;;;;;19.60;79.28;100229.25;5047330;28;20036;-69
2022/07/31 07:31:24;;;;;;;8.13;4.65;;;;;;;19.69;79.18;100228.00;5065199;28;20444;-70
2022/07/31 07:33:51;;;;;;;4.57;3.70;;;;;;;19.83;78.74;100230.34;5042734;28;20041;-69
2022/07/31 07:36:17;;;;;;;5.05;4.10;;;;;;;19.91;78.13;100231.19;5042544;28;20088;-69
2022/07/31 07:38:44;;;;;;;5.75;4.07;;;;;;;20.06;77.82;100233.53;5031290;28;20057;-70
2022/07/31 07:41:10;;;;;;;5.53;3.95;;;;;;;20.18;77.65;100231.97;5034956;28;20025;-68
2022/07/31 07:43:38;;;;;;;5.30;3.97;;;;;;;20.28;75.94;100235.94;5051823;28;20033;-69
2022/07/31 07:46:05;;;;;;;6.28;3.72;;;;;;;20.42;75.65;100233.78;5048677;28;20025;-69
2022/07/31 07:48:31;;;;;;;7.45;4.20;;;;;;;20.55;75.35;100232.94;5043306;28;20123;-70
2022/07/31 07:50:56;;;;;;;4.60;3.95;;;;;;;20.61;74.98;100233.56;5033245;28;20183;-70
2022/07/31 07:53:21;;;;;;;4.80;4.03;;;;;;;20.62;74.66;100238.84;5047585;28;20025;-70
2022/07/31 07:55:47;;;;;;;3.88;3.58;;;;;;;20.55;74.67;100238.72;5039294;28;20028;-70
2022/07/31 07:58:12;;;;;;;4.88;3.88;;;;;;;20.52;74.78;100237.75;5046952;28;20031;-69
2022/07/31 08:00:38;;;;;;;4.55;4.05;;;;;;;20.52;75.37;100234.84;5034156;28;20018;-70
2022/07/31 08:03:04;;;;;;;10.07;4.22;;;;;;;20.50;75.18;100231.72;5046002;28;20026;-70
2022/07/31 08:05:29;;;;;;;6.55;3.47;;;;;;;20.44;74.38;100228.19;5034871;28;20467;-70
2022/07/31 08:07:55;;;;;;;4.30;3.88;;;;;;;20.49;74.54;100227.28;5041220;28;20028;-70
2022/07/31 08:10:20;;;;;;;6.85;3.40;;;;;;;20.51;73.09;100232.50;5040066;28;20021;-72
2022/07/31 08:12:45;;;;;;;4.95;3.38;;;;;;;20.52;73.61;100231.16;5049197;28;20017;-72
2022/07/31 08:15:11;;;;;;;3.58;3.28;;;;;;;20.56;73.33;100232.38;5050560;28;20014;-70
2022/07/31 08:17:37;;;;;;;3.60;3.22;;;;;;;20.53;74.00;100232.72;5043182;28;20103;-71
2022/07/31 08:20:03;;;;;;;4.18;3.08;;;;;;;20.57;74.60;100228.13;5045740;28;20045;-70
2022/07/31 08:22:28;;;;;;;5.85;3.35;;;;;;;20.55;73.50;100233.72;5042401;28;20064;-70
2022/07/31 08:24:55;;;;;;;7.45;3.80;;;;;;;20.61;73.69;100237.25;5054088;28;20058;-69
2022/07/31 08:27:23;;;;;;;3.83;3.35;;;;;;;20.71;73.61;100237.59;5050653;28;20036;-69
2022/07/31 08:29:53;;;;;;;4.78;3.47;;;;;;;20.75;72.65;100244.59;5043565;28;20389;-70
2022/07/31 08:32:19;;;;;;;4.47;3.15;;;;;;;20.77;71.74;100250.63;5035310;28;20478;-71
2022/07/31 08:34:44;;;;;;;3.30;3.00;;;;;;;20.77;72.17;100253.53;5046689;28;20029;-70
2022/07/31 08:37:10;;;;;;;5.47;3.20;;;;;;;20.88;72.84;100255.38;5039515;28;20029;-71
2022/07/31 08:39:36;;;;;;;4.05;3.00;;;;;;;20.97;70.78;100257.78;5048217;28;20021;-69
2022/07/31 08:42:08;;;;;;;2.83;2.28;;;;;;;21.09;71.43;100249.56;5046532;28;20028;-69
2022/07/31 08:44:41;;;;;;;3.30;3.00;;;;;;;21.17;70.07;100259.13;5038215;28;20383;-71
2022/07/31 08:47:08;;;;;;;4.63;2.70;;;;;;;21.19;70.12;100263.00;5038534;28;20964;-70
2022/07/31 08:49:40;;;;;;;2.92;2.45;;;;;;;21.28;70.05;100258.81;5042570;28;20031;-69
2022/07/31 08:52:08;;;;;;;5.07;2.63;;;;;;;21.42;70.08;100257.38;5049031;28;20024;-72
2022/07/31 08:54:34;;;;;;;3.90;2.70;;;;;;;21.50;69.01;100249.50;5053121;28;20516;-70
2022/07/31 08:57:00;;;;;;;3.83;2.75;;;;;;;21.46;68.18;100248.31;5037246;28;20029;-71
2022/07/31 08:59:25;;;;;;;5.57;2.92;;;;;;;21.58;68.38;100256.13;5042953;28;20028;-73
2022/07/31 09:01:51;;;;;;;3.47;2.65;;;;;;;21.54;67.90;100257.84;5045572;28;20135;-68
2022/07/31 09:04:18;;;;;;;6.32;2.67;;;;;;;21.46;67.19;100254.13;5046826;28;20492;-70
2022/07/31 09:06:44;;;;;;;3.08;2.47;;;;;;;21.34;67.42;100241.22;5056016;28;20044;-69
2022/07/31 09:09:09;;;;;;;4.53;2.80;;;;;;;21.37;68.11;100246.69;5034594;28;20038;-69
2022/07/31 09:11:48;;;;;;;3.50;2.80;;;;;;;21.55;67.71;100234.03;5051546;28;20453;-70
2022/07/31 09:14:22;;;;;;;5.68;2.60;;;;;;;21.76;67.71;100236.09;5043814;28;20026;-71
2022/07/31 09:16:51;;;;;;;3.88;2.50;;;;;;;22.04;66.59;100242.63;5019385;28;20033;-72
2022/07/31 09:19:17;;;;;;;2.92;2.40;;;;;;;22.45;66.04;100241.66;5039924;28;20120;-70
2022/07/31 09:21:44;;;;;;;4.93;2.63;;;;;;;22.96;64.74;100232.03;5030725;28;20048;-71
2022/07/31 09:24:29;;;;;;;3.22;2.55;;;;;;;23.42;61.47;100232.00;5053942;28;20106;-72
2022/07/31 09:27:07;;;;;;;4.82;2.60;;;;;;;24.01;61.34;100238.28;5055126;28;20036;-70
2022/07/31 09:29:36;;;;;;;2.88;1.90;;;;;;;24.63;59.25;100238.22;5054424;28;20029;-71
2022/07/31 09:32:13;;;;;;;3.28;1.98;;;;;;;25.07;55.52;100243.56;5054479;28;20039;-70
2022/07/31 09:34:41;;;;;;;2.90;2.28;;;;;;;25.42;55.05;100238.59;5054457;28;20055;-72
2022/07/31 09:37:16;;;;;;;3.72;2.10;;;;;;;25.80;53.37;100233.13;5034670;28;20081;-70
2022/07/31 09:39:50;;;;;;;4.53;2.58;;;;;;;26.12;52.75;100243.91;5043275;28;20025;-72
2022/07/31 09:42:18;;;;;;;4.13;2.03;;;;;;;26.50;52.97;100225.81;5041701;28;20017;-71
2022/07/31 09:44:47;;;;;;;2.70;1.77;;;;;;;26.76;52.22;100227.97;5017738;28;20030;-71
2022/07/31 09:47:26;;;;;;;2.33;1.88;;;;;;;27.09;51.17;100230.59;5031310;28;20356;-71
2022/07/31 09:49:57;;;;;;;4.13;2.17;;;;;;;27.22;50.81;100227.25;5026840;28;20032;-72
2022/07/31 09:52:25;;;;;;;3.58;1.88;;;;;;;27.57;49.13;100221.94;5037303;28;20025;-71
2022/07/31 09:55:13;;;;;;;6.13;2.33;;;;;;;27.75;46.76;100223.34;5053163;28;20029;-71
2022/07/31 09:57:50;;;;;;;2.88;2.10;;;;;;;28.04;47.26;100220.47;5044771;28;20035;-71
2022/07/31 10:00:16;;;;;;;2.45;1.63;;;;;;;28.35;44.99;100217.63;5053893;28;20064;-74
2022/07/31 10:02:43;;;;;;;3.55;1.70;;;;;;;28.50;44.74;100220.25;5053319;28;20438;-75
2022/07/31 10:05:10;;;;;;;1.92;1.40;;;;;;;28.45;43.31;100225.03;5050519;28;20021;-73
2022/07/31 10:07:37;;;;;;;1.63;1.52;;;;;;;28.52;43.65;100225.50;5038359;28;20025;-72
2022/07/31 10:10:07;;;;;;;2.17;1.58;;;;;;;28.63;42.17;100228.59;5043721;28;20115;-73
2022/07/31 10:12:35;;;;;;;1.65;1.50;;;;;;;28.60;41.28;100235.69;5051789;28;20045;-74
2022/07/31 10:15:05;;;;;;;1.73;1.48;;;;;;;28.51;40.80;100236.50;5044210;28;20043;-72
2022/07/31 10:17:44;;;;;;;1.73;1.40;;;;;;;28.26;40.85;100225.06;5040491;28;20029;-72
2022/07/31 10:20:16;;;;;;;1.70;1.60;;;;;;;28.17;41.98;100222.13;5033730;28;20099;-71
2022/07/31 10:22:44;;;;;;;2.70;1.60;;;;;;;28.28;41.79;100221.50;5034975;28;20040;-72
2022/07/31 10:25:14;;;;;;;1.70;1.60;;;;;;;28.32;42.97;100216.72;5049937;28;20044;-72
2022/07/31 10:27:40;;;;;;;4.45;1.42;;;;;;;28.32;41.81;100224.75;5032141;28;20033;-73
2022/07/31 10:30:08;;;;;;;1.60;1.40;;;;;;;28.06;39.77;100219.81;5034621;28;20025;-72
2022/07/31 10:32:35;;;;;;;1.40;1.30;;;;;;;27.73;39.93;100219.50;5049732;28;20030;-72
2022/07/31 10:35:08;;;;;;;1.95;1.67;;;;;;;27.49;42.21;100212.50;5034458;28;20475;-71
2022/07/31 10:38:10;;;;;;;2.22;1.42;;;;;;;27.38;42.69;100205.06;5032887;28;20084;-72
2022/07/31 10:41:02;;;;;;;2.55;1.10;;;;;;;27.27;42.00;100196.03;4999246;28;20037;-72
2022/07/31 10:43:56;;;;;;;1.60;1.50;;;;;;;27.12;43.08;100203.75;5033029;28;20522;-73
2022/07/31 10:46:32;;;;;;;1.85;1.38;;;;;;;27.01;41.45;100203.56;5034589;28;20021;-73
2022/07/31 10:49:05;;;;;;;1.48;1.38;;;;;;;26.82;42.56;100201.31;5049616;28;20032;-73
2022/07/31 10:51:31;;;;;;;1.80;1.27;;;;;;;26.81;43.82;100193.13;5034070;28;20533;-72
2022/07/31 10:53:59;;;;;;;7.22;1.63;;;;;;;26.97;43.81;100201.06;5033035;28;20033;-72
2022/07/31 10:56:26;;;;;;;2.65;1.35;;;;;;;26.99;41.14;100197.53;5049405;28;20492;-71
2022/07/31 10:58:57;;;;;;;1.38;1.10;;;;;;;27.12;40.66;100197.09;5032991;28;20090;-73
2022/07/31 11:01:27;;;;;;;1.83;1.38;;;;;;;27.12;39.93;100203.75;5016318;28;20021;-71
2022/07/31 11:04:00;;;;;;;1.20;1.10;;;;;;;27.29;40.34;100197.00;5032793;28;20033;-72
2022/07/31 11:06:38;;;;;;;1.30;1.10;;;;;;;27.48;37.71;100196.28;5049114;28;20037;-71
2022/07/31 11:09:04;;;;;;;2.17;1.35;;;;;;;27.59;39.35;100205.28;5032892;28;20025;-72
2022/07/31 11:11:34;;;;;;;1.30;1.00;;;;;;;27.48;37.01;100197.06;5032153;28;20045;-70
2022/07/31 11:14:01;;;;;;;1.40;1.10;;;;;;;27.39;37.61;100191.16;5033445;28;20021;-74
2022/07/31 11:16:28;;;;;;;1.17;1.08;;;;;;;27.38;36.22;100207.22;5049304;28;20032;-71
2022/07/31 11:18:59;;;;;;;4.88;1.25;;;;;;;27.38;36.55;100198.44;5034122;28;20021;-71
2022/07/31 11:21:40;;;;;;;1.35;0.85;;;;;;;27.45;36.15;100191.66;5033619;28;20029;-72
2022/07/31 11:24:17;;;;;;;27.58;10.38;;;;;;;27.59;37.44;100199.41;5033918;28;20083;-71
2022/07/31 11:26:54;;;;;;;28.70;10.23;;;;;;;27.61;39.54;100187.00;5033835;28;20029;-71